Latest Weather Observations for Nuriootpa

IDS60901

Issued at 10:31 am CST Sunday 24 July 2016 (issued every 10 minutes, with the page automatically refreshed every 10 minutes)

About weather observations | Map of Adelaide area stations | Latest observations for Adelaide area | Other Formats
Station Details ID: 023373 Name: NURIOOTPA PIRSA Lat: -34.48 Lon: 139.01 Height: 275.0 m
Data from the previous 72 hours. | See also: Recent months at Nuriootpa
Date/Time
CST
Temp
°C
App
Temp
°C
Dew
Point
°C
Rel
Hum
%
Delta-T
°C
Wind Press
QNH
hPa
Press
MSL
hPa
Rain since
9am
mm
Dir  Spd
km/h
Gust
km/h
Spd
kts
Gust
kts
24/10:30am 7.0 -1.1 5.2 88 0.8 NW 37 63 20 34 1009.5 1009.8 1.0
24/10:00am 8.8 0.8 3.6 70 2.3 NW 35 54 19 29 1008.6 1008.9 0.0
24/09:30am 9.6 0.7 3.2 64 2.8 NW 39 57 21 31 1008.7 1009.0 0.0
24/09:04am 9.0 2.0 4.1 71 2.2 NW 30 50 16 27 1008.8 1009.1 0.0
24/09:00am 8.9 2.4 4.7 75 1.9 NW 28 41 15 22 1008.8 1009.1 0.2
24/08:30am 8.4 1.9 4.6 77 1.7 NW 28 43 15 23 1009.3 1009.6 0.2
24/08:00am 8.1 2.4 5.0 81 1.4 NW 24 37 13 20 1009.6 1009.9 0.2
24/07:30am 7.9 2.9 4.5 79 1.5 NW 20 37 11 20 1009.9 1010.3 0.2
24/07:00am 7.9 2.4 3.8 75 1.8 NW 22 33 12 18 1009.9 1010.3 0.2
24/06:30am 7.6 2.6 3.5 75 1.8 NW 19 30 10 16 1010.0 1010.4 0.2
24/06:00am 4.7 1.6 3.5 92 0.5 ENE 9 13 5 7 1009.9 1010.3 0.2
24/05:30am 4.8 1.3 3.6 92 0.5 NNE 11 15 6 8 1010.1 1010.5 0.2
24/05:00am 4.7 1.6 3.5 92 0.5 N 9 11 5 6 1010.7 1011.0 0.2
24/04:30am 4.8 1.8 3.9 94 0.4 NNE 9 13 5 7 1011.0 1011.3 0.2
24/04:00am 4.3 1.2 3.6 95 0.3 NNE 9 13 5 7 1011.3 1011.6 0.2
24/03:30am 4.6 1.9 3.7 94 0.4 NNE 7 9 4 5 1011.4 1011.7 0.2
24/03:00am 4.7 1.6 3.8 94 0.4 NNE 9 11 5 6 1011.7 1012.0 0.2
24/02:30am 5.1 2.1 4.2 94 0.4 NNE 9 11 5 6 1012.4 1012.7 0.2
24/02:00am 4.9 1.9 4.2 95 0.3 NNE 9 13 5 7 1012.8 1013.2 0.2
24/01:30am 4.2 1.5 3.7 97 0.2 NE 7 9 4 5 1013.2 1013.6 0.2
24/01:00am 4.6 1.6 4.1 97 0.2 NNE 9 11 5 6 1013.6 1014.0 0.2
24/12:30am 4.4 1.7 3.9 97 0.2 NNE 7 9 4 5 1014.3 1014.6 0.2
24/12:00am 4.2 1.2 4.0 99 0.1 NE 9 11 5 6 1014.6 1014.9 0.2
 
Date/Time
CST
Temp
°C
App
Temp
°C
Dew
Point
°C
Rel
Hum
%
Delta-T
°C
Wind Press
QNH
hPa
Press
MSL
hPa
Rain since
9am
mm
Dir  Spd
km/h
Gust
km/h
Spd
kts
Gust
kts
23/11:30pm 3.6 0.8 3.4 99 0.1 ENE 7 9 4 5 1014.8 1015.1 0.2
23/11:00pm 4.1 1.4 3.9 99 0.1 NNE 7 9 4 5 1015.1 1015.4 0.2
23/10:30pm 4.3 1.8 3.8 97 0.2 NE 6 7 3 4 1015.2 1015.5 0.2
23/10:00pm 5.4 2.9 4.9 97 0.2 N 7 9 4 5 1015.4 1015.7 0.2
23/09:30pm 5.9 3.7 5.2 95 0.3 N 6 7 3 4 1015.5 1015.8 0.2
23/09:00pm 6.5 4.4 5.8 95 0.3 N 6 7 3 4 1015.6 1015.9 0.2
23/08:30pm 6.8 4.5 5.7 93 0.5 NNW 7 9 4 5 1015.6 1015.9 0.2
23/08:00pm 7.0 4.5 4.7 85 1.0 WNW 7 11 4 6 1015.6 1015.9 0.2
23/07:30pm 7.5 5.3 5.3 86 1.0 NW 6 9 3 5 1015.6 1015.9 0.2
23/07:00pm 7.6 4.8 5.2 85 1.1 WNW 9 11 5 6 1015.5 1015.8 0.2
23/06:30pm 7.4 4.5 4.7 83 1.2 WNW 9 11 5 6 1015.4 1015.7 0.2
23/06:00pm 8.1 4.1 5.0 81 1.4 W 15 26 8 14 1015.0 1015.3 0.2
23/05:30pm 8.2 5.4 5.1 81 1.4 W 9 13 5 7 1015.0 1015.3 0.2
23/05:00pm 9.1 5.0 4.2 71 2.2 W 15 20 8 11 1014.8 1015.1 0.2
23/04:30pm 9.9 5.8 4.1 67 2.6 W 15 20 8 11 1014.8 1015.1 0.2
23/04:00pm 9.8 5.3 2.1 58 3.3 W 15 19 8 10 1014.9 1015.2 0.2
23/03:30pm 10.1 5.4 3.0 61 3.1 W 17 22 9 12 1014.8 1015.1 0.2
23/03:00pm 10.4 5.2 2.3 57 3.5 W 19 26 10 14 1014.7 1015.0 0.2
23/02:30pm 10.7 5.5 2.4 56 3.6 W 19 24 10 13 1014.5 1014.8 0.2
23/02:00pm 11.7 6.8 4.3 60 3.4 W 19 26 10 14 1014.4 1014.7 0.2
23/01:30pm 10.7 5.5 2.7 57 3.5 WSW 19 26 10 14 1014.6 1014.9 0.2
23/01:00pm 9.8 6.9 4.7 70 2.3 S 9 13 5 7 1014.5 1014.8 0.2
23/12:30pm 9.6 5.6 5.0 73 2.1 SSW 15 20 8 11 1014.5 1014.8 0.2
23/12:00pm 9.1 5.5 4.9 75 1.9 SSW 13 19 7 10 1014.8 1015.1 0.2
23/11:30am 10.3 7.1 5.1 70 2.4 SSW 11 17 6 9 1015.0 1015.3 0.2
23/11:00am 8.6 5.0 5.1 79 1.6 SW 13 19 7 10 1015.1 1015.4 0.2
23/10:30am 8.7 5.3 5.9 82 1.3 SSW 13 19 7 10 1014.9 1015.2 0.2
23/10:00am 8.6 5.7 6.5 87 1.0 SW 11 17 6 9 1014.8 1015.1 0.2
23/09:30am 7.4 3.1 5.4 87 0.9 SW 17 24 9 13 1014.5 1014.8 0.2
23/09:00am 8.5 6.2 7.5 93 0.5 SW 9 13 5 7 1013.9 1014.3 8.4
23/08:30am 7.7 4.9 6.8 94 0.4 SW 11 17 6 9 1013.5 1013.9 8.4
23/08:00am 7.7 5.4 7.3 97 0.2 W 9 13 5 7 1012.9 1013.3 8.4
23/07:30am 7.4 4.2 7.0 97 0.2 WSW 13 17 7 9 1012.6 1012.9 8.4
23/07:00am 7.4 4.2 7.0 97 0.2 WSW 13 19 7 10 1012.0 1012.3 8.4
23/06:30am 7.4 4.2 6.8 96 0.3 W 13 24 7 13 1011.4 1011.7 8.2
23/06:00am 7.4 3.8 6.8 96 0.3 W 15 22 8 12 1010.8 1011.1 8.0
23/05:30am 7.5 2.9 6.6 94 0.4 WSW 20 30 11 16 1010.2 1010.6 8.0
23/05:00am 7.5 3.0 6.9 96 0.3 W 20 33 11 18 1009.6 1009.9 7.8
23/04:30am 7.4 2.8 6.5 94 0.4 W 20 30 11 16 1009.3 1009.6 7.8
23/04:00am 7.3 1.5 6.2 93 0.5 W 26 39 14 21 1008.9 1009.2 7.8
23/03:30am 7.5 2.5 6.6 94 0.4 W 22 33 12 18 1008.5 1008.8 7.8
23/03:00am 7.4 0.9 6.5 94 0.4 W 30 43 16 23 1008.1 1008.4 7.8
23/02:30am 7.2 0.3 6.3 94 0.4 W 32 46 17 25 1007.9 1008.2 7.8
23/02:06am 7.4 -0.2 5.9 90 0.7 W 35 54 19 29 1007.8 1008.1 7.8
23/02:00am 7.5 0.3 6.0 90 0.7 W 33 48 18 26 1007.7 1008.0 7.8
23/01:30am 7.6 0.0 5.9 89 0.8 W 35 57 19 31 1007.3 1007.6 7.8
23/01:00am 7.7 -1.3 6.4 91 0.6 W 43 61 23 33 1006.9 1007.2 7.8
23/12:37am 7.6 -1.5 6.1 90 0.7 W 43 72 23 39 1006.5 1006.8 7.8
23/12:30am 7.5 -1.3 5.5 87 0.9 W 41 56 22 30 1006.8 1007.1 7.8
23/12:08am 7.3 -1.9 5.5 88 0.8 W 43 63 23 34 1006.5 1006.8 7.8
23/12:00am 7.4 -1.7 5.7 89 0.8 W 43 56 23 30 1006.8 1007.1 7.8
 
Date/Time
CST
Temp
°C
App
Temp
°C
Dew
Point
°C
Rel
Hum
%
Delta-T
°C
Wind Press
QNH
hPa
Press
MSL
hPa
Rain since
9am
mm
Dir  Spd
km/h
Gust
km/h
Spd
kts
Gust
kts
22/11:30pm 7.9 -1.0 5.3 84 1.2 WNW 41 63 22 34 1006.7 1006.9 7.6
22/11:02pm 8.0 -0.8 5.4 84 1.2 W 41 59 22 32 1006.4 1006.7 7.6
22/11:00pm 8.0 -1.2 5.4 84 1.2 W 43 57 23 31 1006.5 1006.8 7.6
22/10:37pm 8.2 -0.2 5.6 84 1.2 WNW 39 59 21 32 1006.2 1006.5 7.6
22/10:30pm 8.3 0.3 5.5 82 1.3 WNW 37 52 20 28 1006.1 1006.4 7.6
22/10:00pm 7.7 0.4 5.5 86 1.0 W 33 52 18 28 1006.1 1006.4 7.6
22/09:30pm 7.4 0.7 5.7 89 0.8 W 30 46 16 25 1005.9 1006.2 7.6
22/09:03pm 7.8 -0.5 6.1 89 0.8 WNW 39 80 21 43 1005.6 1005.9 7.4
22/09:01pm 8.0 0.5 6.1 88 0.9 WNW 35 57 19 31 1005.3 1005.6 7.4
22/09:00pm 8.1 0.9 5.9 86 1.0 WNW 33 48 18 26 1005.5 1005.8 7.4
22/08:45pm 8.5 0.1 5.5 81 1.4 WNW 39 57 21 31 1005.1 1005.4 7.0
22/08:30pm 8.4 0.3 5.3 81 1.4 WNW 37 50 20 27 1004.8 1005.1 7.0
22/08:14pm 8.5 0.9 5.7 82 1.3 WNW 35 54 19 29 1004.7 1005.0 7.0
22/08:00pm 8.5 0.9 5.7 82 1.3 W 35 52 19 28 1004.7 1005.0 7.0
22/07:30pm 8.8 1.0 6.5 85 1.1 W 37 61 20 33 1004.4 1004.7 7.0
22/07:00pm 8.9 0.8 6.8 87 1.0 W 39 63 21 34 1004.0 1004.3 7.0
22/06:30pm 9.3 1.8 7.9 91 0.7 WNW 37 59 20 32 1003.4 1003.6 7.0
22/06:00pm 8.7 0.7 7.5 92 0.6 W 39 59 21 32 1002.7 1003.0 7.0
22/05:30pm 9.2 -0.3 6.9 85 1.1 W 46 67 25 36 1002.4 1002.7 6.6
22/05:19pm 9.8 1.2 6.7 81 1.5 W 41 69 22 37 1002.2 1002.5 6.6
22/05:00pm 9.7 1.1 6.6 81 1.5 WNW 41 57 22 31 1002.1 1002.4 6.6
22/04:30pm 10.0 1.1 7.5 84 1.2 W 44 65 24 35 1002.0 1002.3 6.6
22/04:00pm 10.3 1.9 7.4 82 1.4 W 41 61 22 33 1001.4 1001.7 6.4
22/03:30pm 11.9 5.5 9.2 83 1.4 W 33 56 18 30 1001.2 1001.5 5.8
22/03:28pm 11.7 5.9 9.6 87 1.1 W 30 50 16 27 1001.2 1001.5 5.8
22/03:00pm 10.2 3.7 9.0 92 0.6 W 33 48 18 26 1001.2 1001.5 5.8
22/02:37pm 9.3 3.2 8.3 93 0.5 W 30 50 16 27 1001.3 1001.6 5.2
22/02:30pm 9.3 3.5 8.1 92 0.6 W 28 43 15 23 1001.3 1001.6 4.6
22/02:00pm 9.0 2.4 8.4 96 0.3 W 33 57 18 31 1001.8 1002.1 3.2
22/01:51pm 9.6 1.4 8.0 90 0.8 W 41 65 22 35 1001.6 1001.9 1.4
22/01:49pm 10.2 2.0 8.4 89 0.9 WNW 41 65 22 35 1001.2 1001.5 1.0
22/01:38pm 13.6 6.6 8.5 71 2.6 NW 35 61 19 33 1000.5 1000.7 0.0
22/01:30pm 14.2 7.7 8.8 70 2.8 NW 33 50 18 27 1000.6 1000.9 0.0
22/01:02pm 14.6 7.7 9.0 69 2.9 WNW 35 54 19 29 1001.2 1001.5 0.0
22/01:00pm 14.8 7.6 9.3 69 2.9 WNW 37 54 20 29 1001.2 1001.5 0.0
22/12:30pm 14.7 7.5 9.1 69 2.9 WNW 37 57 20 31 1001.8 1002.1 0.0
22/12:06pm 13.9 7.6 9.7 76 2.2 WNW 33 52 18 28 1002.2 1002.5 0.0
22/12:00pm 13.5 7.3 9.5 77 2.1 WNW 32 48 17 26 1002.5 1002.8 0.0
22/11:43am 13.3 7.9 9.5 78 2.0 NW 28 54 15 29 1002.7 1003.0 0.0
22/11:30am 13.2 7.7 9.3 77 2.0 NW 28 43 15 23 1003.1 1003.3 0.0
22/11:00am 13.0 7.4 8.9 76 2.1 NW 28 41 15 22 1003.5 1003.7 0.0
22/10:44am 13.0 7.0 8.7 75 2.2 NW 30 48 16 26 1003.6 1003.8 0.0
22/10:30am 12.9 6.9 8.8 76 2.1 WNW 30 41 16 22 1003.7 1004.0 0.0
22/10:00am 12.8 6.9 9.1 78 1.9 WNW 30 39 16 21 1004.2 1004.5 0.0
22/09:32am 12.7 6.8 9.2 79 1.8 WNW 30 48 16 26 1004.4 1004.7 0.0
22/09:30am 12.7 6.4 9.0 78 1.9 WNW 32 48 17 26 1004.5 1004.8 0.0
22/09:00am 12.5 7.1 9.4 81 1.6 WNW 28 39 15 21 1004.7 1005.0 1.6
22/08:30am 12.4 7.1 9.9 85 1.3 WNW 28 39 15 21 1004.7 1005.0 1.6
22/08:00am 12.4 7.5 10.1 86 1.2 WNW 26 37 14 20 1004.7 1005.0 1.6
22/07:30am 12.3 7.8 10.2 87 1.1 WNW 24 37 13 20 1004.4 1004.7 1.6
22/07:00am 12.3 7.9 10.4 88 1.0 WNW 24 32 13 17 1004.0 1004.3 1.6
22/06:30am 12.4 8.0 10.5 88 1.0 WNW 24 35 13 19 1004.7 1005.0 1.4
22/06:00am 13.3 8.0 9.7 79 1.9 W 28 39 15 21 1004.4 1004.7 1.2
22/05:30am 13.7 7.9 9.3 75 2.3 W 30 46 16 25 1004.0 1004.3 1.2
22/05:00am 14.1 8.6 9.1 72 2.6 WNW 28 41 15 22 1003.9 1004.2 1.2
22/04:30am 14.5 8.9 8.9 69 2.9 W 28 37 15 20 1004.0 1004.3 1.2
22/04:00am 14.4 10.3 8.6 68 3.0 WNW 20 28 11 15 1004.4 1004.7 1.2
22/03:30am 14.4 11.0 9.0 70 2.8 WNW 17 22 9 12 1004.3 1004.6 1.2
22/03:00am 14.5 11.8 10.2 75 2.3 NW 15 22 8 12 1004.4 1004.7 1.2
22/02:30am 14.8 11.6 9.9 72 2.6 WNW 17 20 9 11 1004.6 1004.9 1.2
22/02:00am 15.3 12.3 10.7 74 2.5 W 17 24 9 13 1005.4 1005.7 1.2
22/01:30am 16.0 12.5 10.8 71 2.8 W 20 32 11 17 1005.3 1005.6 1.2
22/01:00am 16.9 12.6 11.9 72 2.8 W 26 35 14 19 1005.4 1005.7 1.2
22/12:31am 18.0 13.5 12.7 71 3.0 WNW 28 48 15 26 1005.7 1006.0 1.2
22/12:30am 18.1 13.6 12.6 70 3.1 WNW 28 41 15 22 1005.8 1006.1 1.2
22/12:00am 18.4 15.5 12.2 67 3.5 NNW 19 33 10 18 1004.9 1005.2 1.2
 
Date/Time
CST
Temp
°C
App
Temp
°C
Dew
Point
°C
Rel
Hum
%
Delta-T
°C
Wind Press
QNH
hPa
Press
MSL
hPa
Rain since
9am
mm
Dir  Spd
km/h
Gust
km/h
Spd
kts
Gust
kts
21/11:30pm 18.4 15.4 12.4 68 3.4 NNW 20 32 11 17 1005.5 1005.8 1.2
21/11:00pm 18.1 15.3 12.6 70 3.1 NNW 19 32 10 17 1005.8 1006.1 1.2
21/10:30pm 17.6 15.4 13.2 75 2.5 N 17 28 9 15 1006.2 1006.5 1.2
21/10:00pm 17.2 15.5 13.7 80 2.0 N 15 24 8 13 1006.7 1006.9 1.2
21/09:30pm 16.9 15.4 14.3 85 1.5 NNW 15 24 8 13 1007.2 1007.5 1.2
21/09:00pm 18.8 16.1 13.0 69 3.3 NNW 19 32 10 17 1007.6 1007.9 0.2
21/08:30pm 18.5 15.9 13.1 71 3.1 N 19 26 10 14 1007.6 1007.9 0.2
21/08:00pm 18.5 16.6 13.1 71 3.1 N 15 22 8 12 1007.7 1008.0 0.2
21/07:30pm 18.5 16.2 13.1 71 3.1 N 17 26 9 14 1007.9 1008.2 0.2
21/07:00pm 18.4 17.0 13.4 72 2.9 N 13 20 7 11 1007.9 1008.2 0.2
21/06:30pm 18.4 17.0 13.4 72 2.9 N 13 19 7 10 1008.2 1008.5 0.2
21/06:00pm 18.8 17.0 13.2 70 3.2 N 15 22 8 12 1008.4 1008.7 0.2
21/05:30pm 19.3 17.8 13.0 67 3.6 NNW 13 20 7 11 1008.4 1008.7 0.2
21/05:00pm 19.4 17.9 13.1 67 3.6 NNW 13 20 7 11 1008.6 1008.9 0.2
21/04:30pm 19.8 17.9 13.0 65 3.9 NNW 15 22 8 12 1008.9 1009.2 0.2
21/04:00pm 20.1 16.8 12.8 63 4.2 NW 22 37 12 20 1009.4 1009.7 0.2
21/03:30pm 20.5 17.6 12.4 59 4.6 NW 19 35 10 19 1009.6 1009.9 0.2
21/03:00pm 20.8 17.3 12.2 58 4.9 NW 22 37 12 20 1010.0 1010.4 0.2
21/02:30pm 21.0 17.2 12.4 58 4.9 NW 24 39 13 21 1010.5 1010.8 0.2
21/02:00pm 21.6 17.9 12.8 57 5.1 NW 24 39 13 21 1010.8 1011.1 0.2
21/01:30pm 21.4 17.9 12.3 56 5.2 NW 22 37 12 20 1011.0 1011.3 0.2
21/01:00pm 21.1 18.5 13.2 60 4.6 NNW 19 28 10 15 1011.8 1012.1 0.2
21/12:30pm 20.5 17.5 12.0 58 4.8 NNW 19 28 10 15 1012.5 1012.8 0.2
21/12:00pm 21.0 18.8 13.2 61 4.5 NNW 17 24 9 13 1013.4 1013.8 0.0
21/11:30am 19.0 17.8 12.7 67 3.6 N 11 17 6 9 1014.0 1014.4 0.0
21/11:00am 18.7 17.6 12.1 65 3.7 N 9 15 5 8 1014.5 1014.8 0.0

Latest Capital City Observations: Canberra | Sydney | Melbourne | Brisbane | Adelaide | Perth | Hobart | Darwin

Other Formats:

Comma delimited format used in spreadsheet applications
http://www.bom.gov.au/fwo/IDS60901/IDS60901.94681.axf

JavaScript Object Notation format (JSON) in row-major order
http://www.bom.gov.au/fwo/IDS60901/IDS60901.94681.json